createdAt,value
2022-10-25T00:02:16.702Z,2.80
2022-10-25T00:04:44.996Z,3.00
2022-10-25T00:07:12.873Z,3.33
2022-10-25T00:25:11.845Z,2.55
2022-10-25T00:27:40.069Z,2.90
2022-10-25T00:30:08.956Z,2.78
2022-10-25T00:32:36.928Z,2.10
2022-10-25T00:35:04.907Z,2.65
2022-10-25T00:37:32.692Z,2.40
2022-10-25T00:40:00.253Z,2.30
2022-10-25T00:42:28.161Z,2.58
2022-10-25T00:44:58.797Z,3.05
2022-10-25T00:50:14.483Z,2.55
2022-10-25T00:52:46.204Z,2.80
2022-10-25T00:55:16.822Z,2.20
2022-10-25T00:57:51.254Z,1.75
2022-10-25T01:00:18.928Z,2.28
2022-10-25T01:02:47.162Z,2.28
2022-10-25T01:05:16.164Z,2.45
2022-10-25T01:07:43.765Z,2.35
2022-10-25T01:10:11.808Z,2.47
2022-10-25T01:12:39.935Z,2.60
2022-10-25T01:15:08.112Z,2.65
2022-10-25T01:26:14.947Z,3.97
2022-10-25T01:31:44.122Z,2.65
2022-10-25T01:42:24.694Z,2.47
2022-10-25T01:45:20.653Z,2.75
2022-10-25T01:47:53.436Z,2.53
2022-10-25T01:53:04.934Z,3.75
2022-10-25T01:58:35.480Z,2.58
2022-10-25T02:04:15.991Z,2.92
2022-10-25T02:10:00.867Z,2.40
2022-10-25T02:12:42.669Z,2.50
2022-10-25T02:15:18.926Z,2.50
2022-10-25T02:18:00.235Z,2.83
2022-10-25T02:20:33.069Z,2.78
2022-10-25T02:23:04.528Z,2.85
2022-10-25T02:25:38.710Z,2.17
2022-10-25T02:28:10.599Z,2.80
2022-10-25T02:30:40.883Z,2.65
2022-10-25T02:33:08.821Z,2.75
2022-10-25T02:35:36.613Z,2.90
2022-10-25T02:38:05.170Z,2.92
2022-10-25T02:40:32.883Z,2.75
2022-10-25T02:43:00.585Z,2.90
2022-10-25T02:45:29.039Z,3.30
2022-10-25T02:47:56.810Z,3.95
2022-10-25T02:50:24.882Z,3.55
2022-10-25T02:52:53.121Z,3.17
2022-10-25T02:55:21.350Z,3.90
2022-10-25T02:57:49.188Z,4.25
2022-10-25T03:00:17.558Z,4.72
2022-10-25T03:02:45.971Z,4.07
2022-10-25T03:05:14.265Z,3.88
2022-10-25T03:07:41.968Z,4.32
2022-10-25T03:10:09.912Z,4.00
2022-10-25T03:12:37.862Z,4.07
2022-10-25T03:15:06.497Z,3.83
2022-10-25T03:17:34.442Z,3.35
2022-10-25T03:20:02.614Z,3.92
2022-10-25T03:22:32.363Z,3.55
2022-10-25T03:25:00.127Z,4.40
2022-10-25T03:27:28.443Z,4.70
2022-10-25T03:29:56.610Z,4.88
2022-10-25T03:32:24.839Z,4.95
2022-10-25T03:34:52.900Z,4.90
2022-10-25T03:37:20.970Z,4.93
2022-10-25T03:39:49.462Z,4.90
2022-10-25T03:42:20.660Z,4.22
2022-10-25T03:44:50.047Z,4.63
2022-10-25T03:47:17.934Z,5.03
2022-10-25T03:49:47.103Z,5.70
2022-10-25T03:52:16.116Z,4.70
2022-10-25T03:54:51.299Z,5.28
2022-10-25T03:57:20.853Z,5.20
2022-10-25T03:59:50.015Z,5.90
2022-10-25T04:02:18.439Z,6.65
2022-10-25T04:04:46.625Z,5.50
2022-10-25T04:07:15.755Z,6.10
2022-10-25T04:09:43.731Z,6.00
2022-10-25T04:12:13.558Z,6.13
2022-10-25T04:14:43.614Z,6.13
2022-10-25T04:17:21.055Z,5.28
2022-10-25T04:19:50.651Z,5.25
2022-10-25T04:22:19.501Z,4.18
2022-10-25T04:24:50.498Z,4.75
2022-10-25T04:27:19.281Z,5.68
2022-10-25T04:29:49.547Z,5.03
2022-10-25T04:32:22.284Z,4.60
2022-10-25T04:34:57.503Z,4.97
2022-10-25T04:37:28.336Z,5.13
2022-10-25T04:39:57.742Z,4.35
2022-10-25T04:42:27.131Z,4.85
2022-10-25T04:44:55.083Z,5.47
2022-10-25T04:47:24.314Z,4.93
2022-10-25T04:49:59.543Z,4.55
2022-10-25T04:52:33.141Z,4.65
2022-10-25T04:55:02.129Z,5.20
2022-10-25T04:57:35.157Z,5.07
2022-10-25T05:00:09.325Z,4.68
2022-10-25T05:02:46.079Z,3.45
2022-10-25T05:05:19.996Z,3.63
2022-10-25T05:07:50.972Z,3.80
2022-10-25T05:10:23.851Z,3.58
2022-10-25T05:13:01.185Z,3.83
2022-10-25T05:15:37.044Z,4.18
2022-10-25T05:18:11.921Z,3.60
2022-10-25T05:20:42.727Z,3.58
2022-10-25T05:23:12.658Z,3.58
2022-10-25T05:25:44.909Z,3.30
2022-10-25T05:28:17.781Z,3.58
2022-10-25T05:30:45.418Z,3.88
2022-10-25T05:33:21.368Z,3.15
2022-10-25T05:35:56.779Z,3.78
2022-10-25T05:38:25.577Z,3.85
2022-10-25T05:41:03.689Z,4.03
2022-10-25T05:43:36.773Z,3.45
2022-10-25T05:48:48.780Z,3.90
2022-10-25T05:54:04.609Z,6.07
2022-10-25T05:56:37.918Z,4.63
2022-10-25T05:59:17.417Z,4.05
2022-10-25T06:01:59.127Z,3.78
2022-10-25T06:04:34.636Z,3.83
2022-10-25T06:07:02.177Z,4.32
2022-10-25T06:09:42.538Z,4.43
2022-10-25T06:12:13.763Z,3.88
2022-10-25T06:14:44.716Z,3.78
2022-10-25T06:17:16.046Z,4.03
2022-10-25T06:19:51.799Z,4.07
2022-10-25T06:22:26.756Z,3.92
2022-10-25T06:25:07.600Z,3.97
2022-10-25T06:27:43.260Z,4.18
2022-10-25T06:30:13.462Z,4.45
2022-10-25T06:32:44.513Z,4.30
2022-10-25T06:35:23.111Z,4.40
2022-10-25T06:38:01.888Z,4.50
2022-10-25T06:40:32.962Z,3.72
2022-10-25T06:43:00.353Z,4.50
2022-10-25T06:45:38.322Z,4.68
2022-10-25T06:48:16.572Z,4.70
2022-10-25T06:50:48.501Z,4.47
2022-10-25T06:53:24.670Z,4.57
2022-10-25T06:55:54.516Z,4.57
2022-10-25T06:58:22.389Z,4.43
2022-10-25T07:00:50.240Z,4.00
2022-10-25T07:03:23.114Z,5.40
2022-10-25T07:05:53.591Z,4.38
2022-10-25T07:08:23.954Z,4.82
2022-10-25T07:10:58.859Z,5.18
2022-10-25T07:13:30.524Z,4.70
2022-10-25T07:18:34.481Z,4.15
2022-10-25T07:21:19.290Z,4.80
2022-10-25T07:23:47.950Z,3.75
2022-10-25T07:29:00.969Z,5.43
2022-10-25T07:31:46.357Z,4.40
2022-10-25T07:34:22.366Z,5.13
2022-10-25T07:37:03.083Z,5.15
2022-10-25T07:39:40.611Z,5.03
2022-10-25T07:42:12.294Z,4.65
2022-10-25T07:44:39.757Z,5.07
2022-10-25T07:47:19.987Z,5.78
2022-10-25T07:49:50.780Z,4.30
2022-10-25T07:52:24.490Z,5.22
2022-10-25T07:55:02.032Z,4.78
2022-10-25T07:57:36.882Z,5.00
2022-10-25T08:00:12.188Z,4.28
2022-10-25T08:02:47.193Z,5.50
2022-10-25T08:05:18.102Z,4.85
2022-10-25T08:07:49.321Z,5.07
2022-10-25T08:10:22.678Z,4.75
2022-10-25T08:12:50.736Z,4.30
2022-10-25T08:15:18.496Z,4.97
2022-10-25T08:18:07.733Z,4.88
2022-10-25T08:21:00.731Z,4.47
2022-10-25T08:23:35.289Z,4.45
2022-10-25T08:26:11.792Z,4.57
2022-10-25T08:28:43.354Z,4.65
2022-10-25T08:31:25.561Z,4.70
2022-10-25T08:33:58.776Z,4.35
2022-10-25T08:36:42.542Z,3.92
2022-10-25T08:39:14.773Z,3.97
2022-10-25T08:42:00.483Z,4.50
2022-10-25T08:47:48.856Z,3.95
2022-10-25T08:50:24.930Z,4.68
2022-10-25T08:53:04.235Z,3.22
2022-10-25T08:56:05.411Z,3.05
2022-10-25T08:58:55.419Z,3.35
2022-10-25T09:01:37.164Z,2.53
2022-10-25T09:04:16.693Z,2.78
2022-10-25T09:07:38.435Z,3.05
2022-10-25T09:10:29.397Z,2.28
2022-10-25T09:16:45.931Z,2.35
2022-10-25T09:22:22.561Z,2.22
2022-10-25T09:30:14.081Z,2.22
2022-10-25T09:32:57.812Z,1.73
2022-10-25T09:35:57.087Z,1.52
2022-10-25T09:38:42.473Z,1.30
2022-10-25T09:41:37.233Z,1.45
2022-10-25T09:44:33.151Z,1.60
2022-10-25T09:50:23.632Z,1.98
2022-10-25T09:58:47.476Z,1.77
2022-10-25T10:01:32.131Z,2.15
2022-10-25T10:07:08.929Z,1.42
2022-10-25T10:09:46.083Z,0.93
2022-10-25T10:12:31.837Z,1.35
2022-10-25T10:15:17.207Z,1.23
2022-10-25T10:17:58.304Z,1.52
2022-10-25T10:20:31.179Z,1.50
2022-10-25T10:23:16.009Z,1.30
2022-10-25T10:25:49.676Z,1.17
2022-10-25T10:28:24.035Z,1.23
2022-10-25T10:31:11.554Z,1.33
2022-10-25T10:33:53.143Z,1.50
2022-10-25T10:36:25.555Z,1.40
2022-10-25T10:39:00.888Z,1.50
2022-10-25T10:41:38.735Z,1.60
2022-10-25T10:44:17.214Z,1.40
2022-10-25T10:46:53.458Z,1.27
2022-10-25T10:49:41.443Z,1.08
2022-10-25T10:55:20.003Z,1.00
2022-10-25T10:58:02.766Z,1.38
2022-10-25T11:00:42.336Z,1.10
2022-10-25T11:03:59.988Z,1.50
2022-10-25T11:06:39.903Z,1.45
2022-10-25T11:14:50.845Z,1.02
2022-10-25T11:17:31.734Z,1.58
2022-10-25T11:31:32.988Z,2.40
2022-10-25T11:43:04.302Z,1.70
2022-10-25T11:45:40.686Z,1.45
2022-10-25T11:57:04.896Z,1.45
2022-10-25T12:00:04.454Z,2.40
2022-10-25T12:11:30.563Z,1.70
2022-10-25T12:14:05.426Z,1.40
2022-10-25T12:16:36.546Z,1.67
2022-10-25T12:22:00.804Z,1.95
2022-10-25T12:24:41.803Z,1.02
2022-10-25T12:27:16.713Z,1.27
2022-10-25T12:29:50.267Z,1.30
2022-10-25T12:32:25.630Z,1.60
2022-10-25T12:34:58.002Z,1.50
2022-10-25T12:37:46.088Z,1.17
2022-10-25T12:40:26.259Z,2.00
2022-10-25T12:43:11.889Z,1.65
2022-10-25T12:45:59.481Z,1.52
2022-10-25T12:49:03.511Z,1.40
2022-10-25T12:54:40.653Z,1.40
2022-10-25T13:00:29.555Z,2.05
2022-10-25T13:03:36.805Z,1.67
2022-10-25T13:09:19.431Z,1.55
2022-10-25T13:12:22.708Z,1.42
2022-10-25T13:14:59.460Z,1.50
2022-10-25T13:22:59.969Z,1.50
2022-10-25T13:28:36.131Z,1.42
2022-10-25T13:34:34.431Z,1.73
2022-10-25T13:37:09.478Z,1.38
2022-10-25T13:39:45.888Z,1.40
2022-10-25T13:47:53.036Z,1.50
2022-10-25T13:50:30.903Z,1.65
2022-10-25T13:53:10.323Z,1.58
2022-10-25T13:56:00.956Z,1.92
2022-10-25T14:04:37.138Z,1.77
2022-10-25T14:07:45.259Z,1.50
2022-10-25T14:10:23.398Z,1.52
2022-10-25T14:13:00.546Z,1.48
2022-10-25T14:16:01.068Z,1.25
2022-10-25T14:18:42.723Z,1.98
2022-10-25T14:21:13.632Z,1.50
2022-10-25T14:23:48.440Z,1.48
2022-10-25T14:26:17.097Z,1.70
2022-10-25T14:31:32.703Z,1.80
2022-10-25T14:34:06.759Z,2.00
2022-10-25T14:36:37.810Z,2.50
2022-10-25T14:39:17.991Z,2.65
2022-10-25T14:42:06.784Z,2.80
2022-10-25T14:44:51.482Z,2.70
2022-10-25T14:47:29.300Z,2.67
2022-10-25T14:50:08.983Z,2.90
2022-10-25T14:52:56.917Z,2.42
2022-10-25T14:55:39.221Z,2.05
2022-10-25T14:58:12.545Z,2.28
2022-10-25T15:00:58.279Z,1.98
2022-10-25T15:03:39.700Z,2.40
2022-10-25T15:06:09.485Z,2.20
2022-10-25T15:08:40.540Z,2.13
2022-10-25T15:11:16.469Z,2.25
2022-10-25T15:13:47.637Z,2.13
2022-10-25T15:16:50.541Z,2.55
2022-10-25T15:19:21.067Z,4.38
2022-10-25T15:22:02.462Z,5.78
2022-10-25T15:24:49.322Z,6.18
2022-10-25T15:27:39.574Z,6.45
2022-10-25T15:30:11.672Z,6.60
2022-10-25T15:35:31.008Z,5.32
2022-10-25T15:38:03.078Z,4.00
2022-10-25T15:43:09.206Z,3.40
2022-10-25T15:45:38.186Z,3.45
2022-10-25T15:48:14.435Z,3.08
2022-10-25T15:51:09.347Z,2.88
2022-10-25T15:53:39.036Z,2.33
2022-10-25T15:56:14.549Z,2.92
2022-10-25T15:58:47.896Z,2.20
2022-10-25T16:01:23.615Z,2.80
2022-10-25T16:04:02.588Z,1.75
2022-10-25T16:06:39.614Z,2.47
2022-10-25T16:09:34.287Z,2.08
2022-10-25T16:12:22.075Z,1.85
2022-10-25T16:15:11.606Z,1.65
2022-10-25T16:17:42.787Z,1.70
2022-10-25T16:20:36.386Z,2.03
2022-10-25T16:23:09.210Z,1.67
2022-10-25T16:25:44.768Z,1.83
2022-10-25T16:28:14.850Z,1.88
2022-10-25T16:30:47.616Z,1.70
2022-10-25T16:33:20.000Z,1.90
2022-10-25T16:35:47.489Z,2.17
2022-10-25T16:38:18.141Z,1.88
2022-10-25T16:40:45.706Z,1.67
2022-10-25T16:43:16.123Z,1.65
2022-10-25T16:45:43.707Z,2.10
2022-10-25T16:48:25.466Z,1.73
2022-10-25T16:50:56.644Z,1.63
2022-10-25T16:53:28.136Z,1.55
2022-10-25T16:56:09.018Z,1.80
2022-10-25T16:58:39.684Z,2.35
2022-10-25T17:01:34.361Z,2.03
2022-10-25T17:04:13.506Z,1.38
2022-10-25T17:06:42.991Z,1.63
2022-10-25T17:09:22.843Z,1.60
2022-10-25T17:11:59.206Z,1.55
2022-10-25T17:14:34.404Z,1.80
2022-10-25T17:17:12.741Z,1.65
2022-10-25T17:19:47.872Z,1.60
2022-10-25T17:22:40.373Z,2.00
2022-10-25T17:25:14.813Z,1.88
2022-10-25T17:27:48.148Z,2.63
2022-10-25T17:30:30.781Z,1.80
2022-10-25T17:33:03.806Z,1.88
2022-10-25T17:35:49.828Z,1.58
2022-10-25T17:38:22.707Z,2.20
2022-10-25T17:41:00.830Z,2.08
2022-10-25T17:43:42.687Z,1.40
2022-10-25T17:46:32.261Z,1.90
2022-10-25T17:49:11.342Z,1.55
2022-10-25T17:51:44.076Z,1.85
2022-10-25T17:54:23.876Z,1.70
2022-10-25T17:57:03.176Z,1.60
2022-10-25T17:59:38.312Z,1.70
2022-10-25T18:02:18.017Z,1.23
2022-10-25T18:05:02.265Z,1.42
2022-10-25T18:07:38.566Z,1.80
2022-10-25T18:10:09.765Z,1.60
2022-10-25T18:12:41.194Z,1.40
2022-10-25T18:15:09.166Z,1.77
2022-10-25T18:17:41.173Z,1.20
2022-10-25T18:20:14.725Z,1.70
2022-10-25T18:22:47.909Z,1.90
2022-10-25T18:25:33.603Z,1.42
2022-10-25T18:28:05.743Z,1.85
2022-10-25T18:30:37.348Z,2.35
2022-10-25T18:33:14.541Z,1.30
2022-10-25T18:35:45.249Z,1.17
2022-10-25T18:38:17.068Z,1.35
2022-10-25T18:40:45.400Z,1.23
2022-10-25T18:43:12.787Z,0.90
2022-10-25T18:45:44.502Z,1.13
2022-10-25T18:48:13.041Z,1.20
2022-10-25T18:50:49.762Z,1.10
2022-10-25T18:53:19.628Z,1.38
2022-10-25T18:55:58.419Z,1.23
2022-10-25T18:58:33.405Z,1.65
2022-10-25T19:01:22.867Z,1.13
2022-10-25T19:03:54.361Z,1.00
2022-10-25T19:06:31.009Z,1.38
2022-10-25T19:09:03.324Z,1.48
2022-10-25T19:11:35.233Z,1.27
2022-10-25T19:14:04.436Z,1.73
2022-10-25T19:16:42.924Z,1.55
2022-10-25T19:19:18.541Z,1.48
2022-10-25T19:21:51.197Z,1.20
2022-10-25T19:24:24.293Z,1.45
2022-10-25T19:26:56.753Z,1.15
2022-10-25T19:29:35.101Z,1.13
2022-10-25T19:32:08.715Z,1.35
2022-10-25T19:34:36.158Z,1.17
2022-10-25T19:37:10.410Z,1.13
2022-10-25T19:39:43.529Z,1.10
2022-10-25T19:42:20.042Z,1.40
2022-10-25T19:44:55.083Z,1.15
2022-10-25T19:47:30.271Z,1.17
2022-10-25T19:50:00.190Z,1.13
2022-10-25T19:52:34.952Z,1.02
2022-10-25T19:55:13.109Z,1.02
2022-10-25T19:57:43.550Z,1.42
2022-10-25T20:00:13.702Z,1.05
2022-10-25T20:05:13.978Z,1.40
2022-10-25T20:07:44.553Z,1.02
2022-10-25T20:10:13.851Z,0.88
2022-10-25T20:12:44.000Z,1.20
2022-10-25T20:15:17.444Z,1.00
2022-10-25T20:17:53.029Z,1.17
2022-10-25T20:20:24.231Z,1.42
2022-10-25T20:22:56.149Z,1.48
2022-10-25T20:25:30.901Z,1.25
2022-10-25T20:28:02.717Z,1.40
2022-10-25T20:30:39.130Z,1.50
2022-10-25T20:33:09.219Z,1.48
2022-10-25T20:35:39.828Z,1.75
2022-10-25T20:38:15.529Z,1.48
2022-10-25T20:40:48.094Z,1.17
2022-10-25T20:43:16.155Z,1.00
2022-10-25T20:45:48.376Z,1.30
2022-10-25T20:48:19.068Z,0.70
2022-10-25T20:50:50.472Z,1.00
2022-10-25T20:53:22.448Z,1.10
2022-10-25T20:55:52.518Z,0.95
2022-10-25T20:58:22.479Z,1.40
2022-10-25T21:00:55.105Z,1.05
2022-10-25T21:03:23.363Z,1.23
2022-10-25T21:05:57.145Z,1.48
2022-10-25T21:08:26.322Z,1.20
2022-10-25T21:10:55.944Z,1.05
2022-10-25T21:13:25.449Z,1.35
2022-10-25T21:15:54.482Z,1.38
2022-10-25T21:18:22.387Z,1.30
2022-10-25T21:20:50.519Z,1.33
2022-10-25T21:23:20.064Z,1.27
2022-10-25T21:25:47.828Z,1.20
2022-10-25T21:28:15.848Z,1.45
2022-10-25T21:30:46.396Z,1.08
2022-10-25T21:33:14.270Z,1.48
2022-10-25T21:35:42.482Z,1.60
2022-10-25T21:38:10.477Z,1.20
2022-10-25T21:40:38.222Z,1.17
2022-10-25T21:43:08.029Z,1.00
2022-10-25T21:45:41.547Z,1.42
2022-10-25T21:48:09.207Z,1.40
2022-10-25T21:50:38.121Z,1.50
2022-10-25T21:53:06.576Z,1.40
2022-10-25T21:55:34.465Z,1.10
2022-10-25T21:58:02.822Z,1.30
2022-10-25T22:00:30.834Z,1.40
2022-10-25T22:02:58.720Z,1.58
2022-10-25T22:05:26.306Z,1.33
2022-10-25T22:07:55.182Z,1.60
2022-10-25T22:10:22.981Z,1.50
2022-10-25T22:12:51.112Z,1.48
2022-10-25T22:15:19.389Z,1.30
2022-10-25T22:17:47.532Z,1.70
2022-10-25T22:20:15.200Z,1.15
2022-10-25T22:22:42.862Z,1.65
2022-10-25T22:25:10.587Z,1.52
2022-10-25T22:27:38.464Z,1.70
2022-10-25T22:30:06.710Z,1.65
2022-10-25T22:32:34.593Z,1.70
2022-10-25T22:35:02.439Z,2.00
2022-10-25T22:37:31.433Z,1.88
2022-10-25T22:39:59.174Z,1.50
2022-10-25T22:42:26.813Z,1.38
2022-10-25T22:44:54.643Z,2.13
2022-10-25T22:47:22.647Z,1.88
2022-10-25T22:49:50.339Z,1.40
2022-10-25T22:52:17.931Z,1.60
2022-10-25T22:54:46.044Z,1.60
2022-10-25T22:57:13.740Z,1.25
2022-10-25T22:59:41.572Z,1.65
2022-10-25T23:02:09.290Z,1.52
2022-10-25T23:04:36.848Z,1.27
2022-10-25T23:07:04.623Z,1.20
2022-10-25T23:09:32.381Z,1.70
2022-10-25T23:12:00.187Z,1.65
2022-10-25T23:14:27.949Z,1.10
2022-10-25T23:16:55.758Z,1.38
2022-10-25T23:19:23.429Z,1.30
2022-10-25T23:21:51.302Z,1.40
2022-10-25T23:24:19.071Z,1.65
2022-10-25T23:26:46.806Z,1.42
2022-10-25T23:29:14.549Z,1.35
2022-10-25T23:31:42.316Z,1.50
2022-10-25T23:34:10.995Z,2.03
2022-10-25T23:36:38.547Z,1.35
2022-10-25T23:39:08.122Z,1.27
2022-10-25T23:41:35.722Z,1.42
2022-10-25T23:44:03.338Z,1.63
2022-10-25T23:46:31.178Z,1.50
2022-10-25T23:48:58.721Z,1.48
2022-10-25T23:51:26.391Z,1.60
2022-10-25T23:53:53.883Z,1.20
2022-10-25T23:56:21.555Z,1.42
2022-10-25T23:58:53.977Z,1.50
